sensor_id;sensor_type;location;lat;lon;timestamp;P1;durP1;ratioP1;P2;durP2;ratioP2
63782;SDS011;49925;52.522;5.732;2023-02-03T00:01:35;30.92;;;4.57;;
63782;SDS011;49925;52.522;5.732;2023-02-03T00:04:02;23.42;;;4.00;;
63782;SDS011;49925;52.522;5.732;2023-02-03T00:06:29;25.20;;;4.30;;
63782;SDS011;49925;52.522;5.732;2023-02-03T00:08:57;22.25;;;4.63;;
63782;SDS011;49925;52.522;5.732;2023-02-03T00:11:26;27.70;;;4.40;;
63782;SDS011;49925;52.522;5.732;2023-02-03T00:13:55;23.35;;;4.13;;
63782;SDS011;49925;52.522;5.732;2023-02-03T00:16:23;35.63;;;4.53;;
63782;SDS011;49925;52.522;5.732;2023-02-03T00:18:50;28.70;;;4.55;;
63782;SDS011;49925;52.522;5.732;2023-02-03T00:21:17;30.90;;;4.72;;
63782;SDS011;49925;52.522;5.732;2023-02-03T00:23:45;25.08;;;4.20;;
63782;SDS011;49925;52.522;5.732;2023-02-03T00:26:13;28.33;;;4.65;;
63782;SDS011;49925;52.522;5.732;2023-02-03T00:28:42;21.88;;;3.90;;
63782;SDS011;49925;52.522;5.732;2023-02-03T00:31:19;29.08;;;4.85;;
63782;SDS011;49925;52.522;5.732;2023-02-03T00:33:52;34.58;;;5.45;;
63782;SDS011;49925;52.522;5.732;2023-02-03T00:36:21;23.75;;;4.88;;
63782;SDS011;49925;52.522;5.732;2023-02-03T00:38:49;23.25;;;4.20;;
63782;SDS011;49925;52.522;5.732;2023-02-03T00:41:17;28.45;;;4.80;;
63782;SDS011;49925;52.522;5.732;2023-02-03T00:43:45;29.90;;;4.43;;
63782;SDS011;49925;52.522;5.732;2023-02-03T00:46:13;28.05;;;4.60;;
63782;SDS011;49925;52.522;5.732;2023-02-03T00:48:40;37.20;;;4.60;;
63782;SDS011;49925;52.522;5.732;2023-02-03T00:51:08;28.02;;;5.63;;
63782;SDS011;49925;52.522;5.732;2023-02-03T00:53:35;33.95;;;5.25;;
63782;SDS011;49925;52.522;5.732;2023-02-03T00:56:02;25.20;;;4.93;;
63782;SDS011;49925;52.522;5.732;2023-02-03T00:58:29;23.38;;;4.53;;
63782;SDS011;49925;52.522;5.732;2023-02-03T01:00:56;26.42;;;4.32;;
63782;SDS011;49925;52.522;5.732;2023-02-03T01:03:23;21.88;;;4.03;;
63782;SDS011;49925;52.522;5.732;2023-02-03T01:05:50;22.25;;;4.45;;
63782;SDS011;49925;52.522;5.732;2023-02-03T01:08:17;36.65;;;5.30;;
63782;SDS011;49925;52.522;5.732;2023-02-03T01:10:44;23.33;;;4.78;;
63782;SDS011;49925;52.522;5.732;2023-02-03T01:13:12;24.05;;;4.03;;
63782;SDS011;49925;52.522;5.732;2023-02-03T01:15:48;38.90;;;5.25;;
63782;SDS011;49925;52.522;5.732;2023-02-03T01:18:15;31.60;;;4.70;;
63782;SDS011;49925;52.522;5.732;2023-02-03T01:20:42;27.88;;;4.43;;
63782;SDS011;49925;52.522;5.732;2023-02-03T01:23:09;22.50;;;4.15;;
63782;SDS011;49925;52.522;5.732;2023-02-03T01:25:36;18.17;;;4.75;;
63782;SDS011;49925;52.522;5.732;2023-02-03T01:28:03;23.25;;;3.88;;
63782;SDS011;49925;52.522;5.732;2023-02-03T01:30:31;23.08;;;3.65;;
63782;SDS011;49925;52.522;5.732;2023-02-03T01:32:58;24.25;;;4.35;;
63782;SDS011;49925;52.522;5.732;2023-02-03T01:35:25;27.60;;;4.88;;
63782;SDS011;49925;52.522;5.732;2023-02-03T01:37:52;23.10;;;3.97;;
63782;SDS011;49925;52.522;5.732;2023-02-03T01:40:19;27.85;;;4.97;;
63782;SDS011;49925;52.522;5.732;2023-02-03T01:42:46;20.35;;;3.97;;
63782;SDS011;49925;52.522;5.732;2023-02-03T01:45:13;29.02;;;4.32;;
63782;SDS011;49925;52.522;5.732;2023-02-03T01:47:45;21.08;;;3.83;;
63782;SDS011;49925;52.522;5.732;2023-02-03T01:50:33;20.10;;;3.92;;
63782;SDS011;49925;52.522;5.732;2023-02-03T01:53:04;20.63;;;3.33;;
63782;SDS011;49925;52.522;5.732;2023-02-03T01:55:35;22.08;;;4.35;;
63782;SDS011;49925;52.522;5.732;2023-02-03T02:03:13;20.48;;;3.65;;
63782;SDS011;49925;52.522;5.732;2023-02-03T02:05:48;31.55;;;4.05;;
63782;SDS011;49925;52.522;5.732;2023-02-03T02:08:18;17.20;;;3.85;;
63782;SDS011;49925;52.522;5.732;2023-02-03T02:10:48;20.77;;;3.50;;
63782;SDS011;49925;52.522;5.732;2023-02-03T02:13:15;18.90;;;3.35;;
63782;SDS011;49925;52.522;5.732;2023-02-03T02:15:57;20.90;;;3.80;;
63782;SDS011;49925;52.522;5.732;2023-02-03T02:27:22;14.80;;;3.40;;
63782;SDS011;49925;52.522;5.732;2023-02-03T02:35:56;19.50;;;3.55;;
63782;SDS011;49925;52.522;5.732;2023-02-03T02:38:45;15.10;;;3.17;;
63782;SDS011;49925;52.522;5.732;2023-02-03T02:42:13;17.98;;;2.97;;
63782;SDS011;49925;52.522;5.732;2023-02-03T02:45:09;17.42;;;3.13;;
63782;SDS011;49925;52.522;5.732;2023-02-03T02:47:42;19.17;;;3.47;;
63782;SDS011;49925;52.522;5.732;2023-02-03T02:50:13;10.15;;;2.90;;
63782;SDS011;49925;52.522;5.732;2023-02-03T02:52:49;24.23;;;3.80;;
63782;SDS011;49925;52.522;5.732;2023-02-03T02:55:21;20.33;;;3.20;;
63782;SDS011;49925;52.522;5.732;2023-02-03T02:57:53;10.00;;;2.85;;
63782;SDS011;49925;52.522;5.732;2023-02-03T03:00:23;18.23;;;3.20;;
63782;SDS011;49925;52.522;5.732;2023-02-03T03:02:50;19.80;;;3.40;;
63782;SDS011;49925;52.522;5.732;2023-02-03T03:05:17;20.38;;;3.42;;
63782;SDS011;49925;52.522;5.732;2023-02-03T03:07:58;20.75;;;3.53;;
63782;SDS011;49925;52.522;5.732;2023-02-03T03:10:28;14.88;;;3.20;;
63782;SDS011;49925;52.522;5.732;2023-02-03T03:12:58;19.60;;;3.30;;
63782;SDS011;49925;52.522;5.732;2023-02-03T03:15:31;27.15;;;3.67;;
63782;SDS011;49925;52.522;5.732;2023-02-03T03:20:43;21.02;;;4.15;;
63782;SDS011;49925;52.522;5.732;2023-02-03T03:23:19;19.83;;;4.07;;
63782;SDS011;49925;52.522;5.732;2023-02-03T03:25:59;17.90;;;3.00;;
63782;SDS011;49925;52.522;5.732;2023-02-03T03:28:49;21.27;;;3.08;;
63782;SDS011;49925;52.522;5.732;2023-02-03T03:31:20;16.60;;;3.70;;
63782;SDS011;49925;52.522;5.732;2023-02-03T03:33:47;26.90;;;3.20;;
63782;SDS011;49925;52.522;5.732;2023-02-03T03:36:22;21.05;;;3.67;;
63782;SDS011;49925;52.522;5.732;2023-02-03T03:38:54;19.70;;;3.40;;
63782;SDS011;49925;52.522;5.732;2023-02-03T03:44:20;23.58;;;2.97;;
63782;SDS011;49925;52.522;5.732;2023-02-03T03:47:05;22.75;;;3.20;;
63782;SDS011;49925;52.522;5.732;2023-02-03T03:49:38;15.77;;;2.85;;
63782;SDS011;49925;52.522;5.732;2023-02-03T03:52:07;21.05;;;3.13;;
63782;SDS011;49925;52.522;5.732;2023-02-03T03:54:35;24.05;;;3.35;;
63782;SDS011;49925;52.522;5.732;2023-02-03T03:57:12;18.80;;;3.33;;
63782;SDS011;49925;52.522;5.732;2023-02-03T03:59:46;25.15;;;3.97;;
63782;SDS011;49925;52.522;5.732;2023-02-03T04:02:15;23.98;;;3.95;;
63782;SDS011;49925;52.522;5.732;2023-02-03T04:04:43;24.35;;;3.47;;
63782;SDS011;49925;52.522;5.732;2023-02-03T04:07:11;18.63;;;2.78;;
63782;SDS011;49925;52.522;5.732;2023-02-03T04:09:39;18.67;;;3.17;;
63782;SDS011;49925;52.522;5.732;2023-02-03T04:12:12;24.58;;;3.67;;
63782;SDS011;49925;52.522;5.732;2023-02-03T04:14:48;22.48;;;3.17;;
63782;SDS011;49925;52.522;5.732;2023-02-03T04:17:15;24.88;;;3.55;;
63782;SDS011;49925;52.522;5.732;2023-02-03T04:19:46;23.02;;;3.90;;
63782;SDS011;49925;52.522;5.732;2023-02-03T04:22:14;25.20;;;3.60;;
63782;SDS011;49925;52.522;5.732;2023-02-03T04:24:41;15.48;;;3.08;;
63782;SDS011;49925;52.522;5.732;2023-02-03T04:27:08;24.23;;;3.42;;
63782;SDS011;49925;52.522;5.732;2023-02-03T04:29:35;18.40;;;3.03;;
63782;SDS011;49925;52.522;5.732;2023-02-03T04:32:02;26.75;;;3.30;;
63782;SDS011;49925;52.522;5.732;2023-02-03T04:34:29;25.20;;;3.63;;
63782;SDS011;49925;52.522;5.732;2023-02-03T04:36:56;17.98;;;3.45;;
63782;SDS011;49925;52.522;5.732;2023-02-03T04:39:23;21.45;;;3.10;;
63782;SDS011;49925;52.522;5.732;2023-02-03T04:41:50;19.75;;;3.25;;
63782;SDS011;49925;52.522;5.732;2023-02-03T04:44:18;26.80;;;4.53;;
63782;SDS011;49925;52.522;5.732;2023-02-03T06:02:20;22.90;;;3.30;;
63782;SDS011;49925;52.522;5.732;2023-02-03T06:04:48;26.23;;;4.40;;
63782;SDS011;49925;52.522;5.732;2023-02-03T06:07:15;26.15;;;3.88;;
63782;SDS011;49925;52.522;5.732;2023-02-03T06:09:43;26.75;;;3.50;;
63782;SDS011;49925;52.522;5.732;2023-02-03T06:12:10;18.67;;;3.50;;
63782;SDS011;49925;52.522;5.732;2023-02-03T06:14:37;23.95;;;3.35;;
63782;SDS011;49925;52.522;5.732;2023-02-03T06:17:04;33.67;;;3.55;;
63782;SDS011;49925;52.522;5.732;2023-02-03T06:19:31;16.98;;;3.95;;
63782;SDS011;49925;52.522;5.732;2023-02-03T06:21:58;20.95;;;3.70;;
63782;SDS011;49925;52.522;5.732;2023-02-03T06:24:25;16.30;;;3.05;;
63782;SDS011;49925;52.522;5.732;2023-02-03T06:26:52;12.27;;;3.20;;
63782;SDS011;49925;52.522;5.732;2023-02-03T06:29:19;20.60;;;3.50;;
63782;SDS011;49925;52.522;5.732;2023-02-03T06:31:46;15.27;;;3.35;;
63782;SDS011;49925;52.522;5.732;2023-02-03T06:34:13;24.23;;;3.50;;
63782;SDS011;49925;52.522;5.732;2023-02-03T06:58:47;22.17;;;3.38;;
63782;SDS011;49925;52.522;5.732;2023-02-03T07:01:14;21.10;;;3.47;;
63782;SDS011;49925;52.522;5.732;2023-02-03T07:03:41;15.82;;;3.50;;
63782;SDS011;49925;52.522;5.732;2023-02-03T07:06:08;29.00;;;3.75;;
63782;SDS011;49925;52.522;5.732;2023-02-03T07:08:35;20.92;;;3.53;;
63782;SDS011;49925;52.522;5.732;2023-02-03T07:11:02;30.10;;;3.80;;
63782;SDS011;49925;52.522;5.732;2023-02-03T07:13:29;26.13;;;3.45;;
63782;SDS011;49925;52.522;5.732;2023-02-03T07:15:57;25.73;;;3.63;;
63782;SDS011;49925;52.522;5.732;2023-02-03T07:18:24;17.65;;;3.55;;
63782;SDS011;49925;52.522;5.732;2023-02-03T07:21:12;24.75;;;3.28;;
63782;SDS011;49925;52.522;5.732;2023-02-03T07:23:39;31.48;;;4.22;;
63782;SDS011;49925;52.522;5.732;2023-02-03T07:26:06;19.58;;;3.60;;
63782;SDS011;49925;52.522;5.732;2023-02-03T07:28:35;23.52;;;4.05;;
63782;SDS011;49925;52.522;5.732;2023-02-03T07:31:02;25.77;;;3.42;;
63782;SDS011;49925;52.522;5.732;2023-02-03T07:33:30;22.88;;;3.67;;
63782;SDS011;49925;52.522;5.732;2023-02-03T07:35:58;21.98;;;3.63;;
63782;SDS011;49925;52.522;5.732;2023-02-03T07:38:26;18.50;;;3.45;;
63782;SDS011;49925;52.522;5.732;2023-02-03T07:40:54;22.42;;;4.07;;
63782;SDS011;49925;52.522;5.732;2023-02-03T07:43:21;32.33;;;4.50;;
63782;SDS011;49925;52.522;5.732;2023-02-03T07:45:49;17.85;;;3.10;;
63782;SDS011;49925;52.522;5.732;2023-02-03T07:48:16;17.70;;;3.03;;
63782;SDS011;49925;52.522;5.732;2023-02-03T07:50:43;27.90;;;3.58;;
63782;SDS011;49925;52.522;5.732;2023-02-03T07:53:10;24.00;;;3.00;;
63782;SDS011;49925;52.522;5.732;2023-02-03T07:55:38;22.17;;;4.00;;
63782;SDS011;49925;52.522;5.732;2023-02-03T07:58:05;18.27;;;3.30;;
63782;SDS011;49925;52.522;5.732;2023-02-03T08:00:32;20.92;;;3.42;;
63782;SDS011;49925;52.522;5.732;2023-02-03T08:03:00;31.70;;;4.60;;
63782;SDS011;49925;52.522;5.732;2023-02-03T08:05:27;27.70;;;3.88;;
63782;SDS011;49925;52.522;5.732;2023-02-03T08:07:56;29.13;;;4.13;;
63782;SDS011;49925;52.522;5.732;2023-02-03T08:10:24;24.52;;;5.13;;
63782;SDS011;49925;52.522;5.732;2023-02-03T08:12:52;19.52;;;4.15;;
63782;SDS011;49925;52.522;5.732;2023-02-03T08:15:20;22.45;;;3.50;;
63782;SDS011;49925;52.522;5.732;2023-02-03T08:17:47;25.80;;;3.20;;
63782;SDS011;49925;52.522;5.732;2023-02-03T08:20:15;29.35;;;3.97;;
63782;SDS011;49925;52.522;5.732;2023-02-03T08:22:42;23.75;;;3.65;;
63782;SDS011;49925;52.522;5.732;2023-02-03T08:25:09;38.83;;;3.90;;
63782;SDS011;49925;52.522;5.732;2023-02-03T08:27:37;24.27;;;3.60;;
63782;SDS011;49925;52.522;5.732;2023-02-03T08:30:05;30.23;;;3.58;;
63782;SDS011;49925;52.522;5.732;2023-02-03T08:32:34;33.55;;;3.58;;
63782;SDS011;49925;52.522;5.732;2023-02-03T08:35:01;19.65;;;4.28;;
63782;SDS011;49925;52.522;5.732;2023-02-03T08:37:29;25.95;;;4.57;;
63782;SDS011;49925;52.522;5.732;2023-02-03T08:39:58;25.60;;;4.68;;
63782;SDS011;49925;52.522;5.732;2023-02-03T08:42:25;23.83;;;3.40;;
63782;SDS011;49925;52.522;5.732;2023-02-03T08:44:52;24.83;;;3.95;;
63782;SDS011;49925;52.522;5.732;2023-02-03T08:47:20;27.05;;;3.33;;
63782;SDS011;49925;52.522;5.732;2023-02-03T08:49:50;22.70;;;3.90;;
63782;SDS011;49925;52.522;5.732;2023-02-03T08:52:17;28.08;;;3.72;;
63782;SDS011;49925;52.522;5.732;2023-02-03T08:54:45;30.67;;;5.28;;
63782;SDS011;49925;52.522;5.732;2023-02-03T08:57:13;30.58;;;3.70;;
63782;SDS011;49925;52.522;5.732;2023-02-03T08:59:41;19.65;;;3.53;;
63782;SDS011;49925;52.522;5.732;2023-02-03T09:02:12;32.47;;;5.65;;
63782;SDS011;49925;52.522;5.732;2023-02-03T09:04:42;23.35;;;3.30;;
63782;SDS011;49925;52.522;5.732;2023-02-03T09:07:10;22.58;;;3.67;;
63782;SDS011;49925;52.522;5.732;2023-02-03T09:09:38;28.83;;;4.13;;
63782;SDS011;49925;52.522;5.732;2023-02-03T09:12:05;21.92;;;3.95;;
63782;SDS011;49925;52.522;5.732;2023-02-03T09:14:33;38.60;;;4.60;;
63782;SDS011;49925;52.522;5.732;2023-02-03T09:17:00;24.30;;;3.90;;
63782;SDS011;49925;52.522;5.732;2023-02-03T09:19:29;38.38;;;4.72;;
63782;SDS011;49925;52.522;5.732;2023-02-03T09:22:00;30.98;;;4.53;;
63782;SDS011;49925;52.522;5.732;2023-02-03T09:24:27;24.95;;;4.10;;
63782;SDS011;49925;52.522;5.732;2023-02-03T09:26:55;29.42;;;3.70;;
63782;SDS011;49925;52.522;5.732;2023-02-03T09:29:22;36.88;;;3.83;;
63782;SDS011;49925;52.522;5.732;2023-02-03T09:31:49;26.33;;;3.67;;
63782;SDS011;49925;52.522;5.732;2023-02-03T09:34:19;23.73;;;5.18;;
63782;SDS011;49925;52.522;5.732;2023-02-03T09:36:47;32.67;;;3.97;;
63782;SDS011;49925;52.522;5.732;2023-02-03T09:39:15;32.35;;;4.50;;
63782;SDS011;49925;52.522;5.732;2023-02-03T09:47:16;19.98;;;3.83;;
63782;SDS011;49925;52.522;5.732;2023-02-03T09:49:51;23.77;;;3.92;;
63782;SDS011;49925;52.522;5.732;2023-02-03T09:52:39;23.45;;;3.63;;
63782;SDS011;49925;52.522;5.732;2023-02-03T09:57:53;34.95;;;3.83;;
63782;SDS011;49925;52.522;5.732;2023-02-03T10:00:46;24.27;;;3.90;;
63782;SDS011;49925;52.522;5.732;2023-02-03T10:06:13;35.33;;;4.28;;
63782;SDS011;49925;52.522;5.732;2023-02-03T10:09:00;20.13;;;3.35;;
63782;SDS011;49925;52.522;5.732;2023-02-03T10:18:13;22.73;;;4.10;;
63782;SDS011;49925;52.522;5.732;2023-02-03T10:20:48;20.73;;;3.63;;
63782;SDS011;49925;52.522;5.732;2023-02-03T10:23:22;30.33;;;4.05;;
63782;SDS011;49925;52.522;5.732;2023-02-03T10:26:00;44.78;;;4.45;;
63782;SDS011;49925;52.522;5.732;2023-02-03T10:28:41;28.23;;;3.97;;
63782;SDS011;49925;52.522;5.732;2023-02-03T10:31:21;24.23;;;4.05;;
63782;SDS011;49925;52.522;5.732;2023-02-03T10:34:00;21.23;;;3.70;;
63782;SDS011;49925;52.522;5.732;2023-02-03T10:36:51;25.92;;;3.75;;
63782;SDS011;49925;52.522;5.732;2023-02-03T10:41:55;24.70;;;4.30;;
63782;SDS011;49925;52.522;5.732;2023-02-03T10:44:24;20.60;;;4.43;;
63782;SDS011;49925;52.522;5.732;2023-02-03T10:47:23;31.75;;;4.32;;
63782;SDS011;49925;52.522;5.732;2023-02-03T10:50:14;23.85;;;4.10;;
63782;SDS011;49925;52.522;5.732;2023-02-03T10:55:44;40.13;;;4.35;;
63782;SDS011;49925;52.522;5.732;2023-02-03T10:58:24;31.67;;;3.78;;
63782;SDS011;49925;52.522;5.732;2023-02-03T11:01:06;26.98;;;4.40;;
63782;SDS011;49925;52.522;5.732;2023-02-03T11:06:30;25.50;;;4.03;;
63782;SDS011;49925;52.522;5.732;2023-02-03T11:08:58;34.35;;;3.95;;
63782;SDS011;49925;52.522;5.732;2023-02-03T11:11:30;46.40;;;4.68;;
63782;SDS011;49925;52.522;5.732;2023-02-03T11:16:29;44.22;;;5.45;;
63782;SDS011;49925;52.522;5.732;2023-02-03T11:19:00;32.97;;;4.40;;
63782;SDS011;49925;52.522;5.732;2023-02-03T11:21:39;28.50;;;4.53;;
63782;SDS011;49925;52.522;5.732;2023-02-03T11:27:10;35.47;;;4.47;;
63782;SDS011;49925;52.522;5.732;2023-02-03T11:29:45;38.47;;;4.63;;
63782;SDS011;49925;52.522;5.732;2023-02-03T11:32:34;36.65;;;5.22;;
63782;SDS011;49925;52.522;5.732;2023-02-03T11:35:11;39.40;;;4.80;;
63782;SDS011;49925;52.522;5.732;2023-02-03T11:37:50;36.28;;;4.88;;
63782;SDS011;49925;52.522;5.732;2023-02-03T11:40:26;29.30;;;5.40;;
63782;SDS011;49925;52.522;5.732;2023-02-03T11:43:03;49.70;;;5.78;;
63782;SDS011;49925;52.522;5.732;2023-02-03T11:45:49;30.75;;;5.10;;
63782;SDS011;49925;52.522;5.732;2023-02-03T11:48:24;37.08;;;5.25;;
63782;SDS011;49925;52.522;5.732;2023-02-03T11:51:10;42.08;;;6.32;;
63782;SDS011;49925;52.522;5.732;2023-02-03T12:00:21;46.42;;;5.95;;
63782;SDS011;49925;52.522;5.732;2023-02-03T12:06:22;56.28;;;6.53;;
63782;SDS011;49925;52.522;5.732;2023-02-03T12:09:08;48.63;;;5.28;;
63782;SDS011;49925;52.522;5.732;2023-02-03T12:11:58;49.22;;;5.32;;
63782;SDS011;49925;52.522;5.732;2023-02-03T12:15:13;37.33;;;4.80;;
63782;SDS011;49925;52.522;5.732;2023-02-03T12:21:12;34.38;;;5.53;;
63782;SDS011;49925;52.522;5.732;2023-02-03T12:30:01;37.50;;;5.68;;
63782;SDS011;49925;52.522;5.732;2023-02-03T12:32:56;47.20;;;5.72;;
63782;SDS011;49925;52.522;5.732;2023-02-03T12:35:35;46.10;;;5.60;;
63782;SDS011;49925;52.522;5.732;2023-02-03T12:38:34;54.80;;;7.60;;
63782;SDS011;49925;52.522;5.732;2023-02-03T12:41:13;43.10;;;5.95;;
63782;SDS011;49925;52.522;5.732;2023-02-03T12:44:00;55.47;;;6.78;;
63782;SDS011;49925;52.522;5.732;2023-02-03T12:46:36;56.20;;;5.40;;
63782;SDS011;49925;52.522;5.732;2023-02-03T12:52:13;60.03;;;6.53;;
63782;SDS011;49925;52.522;5.732;2023-02-03T12:58:40;60.83;;;6.50;;
63782;SDS011;49925;52.522;5.732;2023-02-03T13:01:09;49.35;;;6.20;;
63782;SDS011;49925;52.522;5.732;2023-02-03T13:04:05;75.70;;;6.25;;
63782;SDS011;49925;52.522;5.732;2023-02-03T13:07:07;64.03;;;6.30;;
63782;SDS011;49925;52.522;5.732;2023-02-03T13:09:59;72.18;;;6.65;;
63782;SDS011;49925;52.522;5.732;2023-02-03T13:12:54;50.92;;;5.85;;
63782;SDS011;49925;52.522;5.732;2023-02-03T13:15:27;52.47;;;7.15;;
63782;SDS011;49925;52.522;5.732;2023-02-03T13:20:54;56.38;;;6.60;;
63782;SDS011;49925;52.522;5.732;2023-02-03T13:23:22;61.78;;;6.28;;
63782;SDS011;49925;52.522;5.732;2023-02-03T13:34:46;75.53;;;6.13;;
63782;SDS011;49925;52.522;5.732;2023-02-03T13:43:36;50.03;;;6.00;;
63782;SDS011;49925;52.522;5.732;2023-02-03T13:46:06;68.53;;;6.85;;
63782;SDS011;49925;52.522;5.732;2023-02-03T13:48:43;57.30;;;6.28;;
63782;SDS011;49925;52.522;5.732;2023-02-03T13:53:44;67.13;;;6.32;;
63782;SDS011;49925;52.522;5.732;2023-02-03T13:56:17;62.58;;;8.00;;
63782;SDS011;49925;52.522;5.732;2023-02-03T14:01:42;51.95;;;5.57;;
63782;SDS011;49925;52.522;5.732;2023-02-03T14:14:42;65.32;;;6.78;;
63782;SDS011;49925;52.522;5.732;2023-02-03T14:20:01;72.55;;;7.57;;
63782;SDS011;49925;52.522;5.732;2023-02-03T14:22:30;69.72;;;6.30;;
63782;SDS011;49925;52.522;5.732;2023-02-03T14:25:03;57.53;;;7.00;;
63782;SDS011;49925;52.522;5.732;2023-02-03T14:27:31;54.38;;;6.50;;
63782;SDS011;49925;52.522;5.732;2023-02-03T14:30:05;68.05;;;6.88;;
63782;SDS011;49925;52.522;5.732;2023-02-03T14:32:50;59.65;;;5.65;;
63782;SDS011;49925;52.522;5.732;2023-02-03T14:35:32;61.83;;;8.80;;
63782;SDS011;49925;52.522;5.732;2023-02-03T14:38:06;61.55;;;6.35;;
63782;SDS011;49925;52.522;5.732;2023-02-03T14:40:47;60.00;;;6.53;;
63782;SDS011;49925;52.522;5.732;2023-02-03T14:43:41;46.95;;;7.05;;
63782;SDS011;49925;52.522;5.732;2023-02-03T14:47:28;70.28;;;7.35;;
63782;SDS011;49925;52.522;5.732;2023-02-03T14:57:51;65.50;;;7.50;;
63782;SDS011;49925;52.522;5.732;2023-02-03T15:00:26;45.25;;;6.13;;
63782;SDS011;49925;52.522;5.732;2023-02-03T15:05:45;65.18;;;7.57;;
63782;SDS011;49925;52.522;5.732;2023-02-03T15:13:53;56.05;;;8.98;;
63782;SDS011;49925;52.522;5.732;2023-02-03T15:16:44;56.17;;;7.55;;
63782;SDS011;49925;52.522;5.732;2023-02-03T15:19:14;76.45;;;8.35;;
63782;SDS011;49925;52.522;5.732;2023-02-03T15:21:48;71.10;;;8.00;;
63782;SDS011;49925;52.522;5.732;2023-02-03T15:24:17;81.22;;;8.57;;
63782;SDS011;49925;52.522;5.732;2023-02-03T15:26:49;82.60;;;8.05;;
63782;SDS011;49925;52.522;5.732;2023-02-03T15:29:22;69.47;;;7.72;;
63782;SDS011;49925;52.522;5.732;2023-02-03T15:32:04;65.68;;;6.95;;
63782;SDS011;49925;52.522;5.732;2023-02-03T15:34:40;58.63;;;6.47;;
63782;SDS011;49925;52.522;5.732;2023-02-03T15:37:16;62.55;;;6.05;;
63782;SDS011;49925;52.522;5.732;2023-02-03T15:40:15;66.80;;;8.65;;
